UAL1791 KLAX-KSFO
Flight info
| Callsign | UAL1791 |
|---|---|
| Flight time | 0h 59m |
| Altitude | 36000 |
| Route | SUMMR2 STOKD SERFR SERFR4 |
| Aircraft | A319/M-SDE3FGHIRWY/LB1 |
Departure
| Time | 2026-04-20 21:03 |
|---|---|
| Airport | Los Angeles International Airport (KLAX) |
Arrival
| Time | 2026-04-20 22:03 |
|---|---|
| Airport | San Francisco International Airport (KSFO) |
| Time | Latitude | Longitude | Altitude | Speed | Heading |
|---|---|---|---|---|---|
| 2026-04-20 20:35 | 33.94096 | -118.39763 | 95 ft | 0 kts | 84° |
| 2026-04-20 20:51 | 33.94095 | -118.39769 | 93 ft | 4 kts | 83° |
| 2026-04-20 20:51 | 33.94092 | -118.39801 | 93 ft | 4 kts | 91° |
| 2026-04-20 20:52 | 33.94097 | -118.39825 | 93 ft | 4 kts | 161° |
| 2026-04-20 20:52 | 33.94118 | -118.39829 | 92 ft | 3 kts | 174° |
| 2026-04-20 20:52 | 33.94122 | -118.39830 | 92 ft | 0 kts | 173° |
| 2026-04-20 20:56 | 33.94109 | -118.39828 | 95 ft | 6 kts | 173° |
| 2026-04-20 20:56 | 33.94041 | -118.39827 | 95 ft | 11 kts | 178° |
| 2026-04-20 20:56 | 33.93958 | -118.39813 | 94 ft | 10 kts | 170° |
| 2026-04-20 20:57 | 33.93907 | -118.39763 | 95 ft | 8 kts | 114° |
| 2026-04-20 20:57 | 33.93909 | -118.39691 | 95 ft | 9 kts | 82° |
| 2026-04-20 20:57 | 33.93919 | -118.39600 | 95 ft | 13 kts | 83° |
| 2026-04-20 20:57 | 33.93931 | -118.39482 | 95 ft | 16 kts | 83° |
| 2026-04-20 20:58 | 33.93945 | -118.39349 | 95 ft | 12 kts | 82° |
| 2026-04-20 20:58 | 33.93957 | -118.39233 | 93 ft | 15 kts | 83° |
| 2026-04-20 20:58 | 33.93971 | -118.39095 | 94 ft | 18 kts | 83° |
| 2026-04-20 20:58 | 33.93987 | -118.38942 | 96 ft | 20 kts | 83° |
| 2026-04-20 20:59 | 33.94001 | -118.38804 | 94 ft | 11 kts | 83° |
| 2026-04-20 20:59 | 33.94012 | -118.38699 | 97 ft | 14 kts | 82° |
| 2026-04-20 20:59 | 33.94023 | -118.38583 | 95 ft | 14 kts | 83° |
| 2026-04-20 20:59 | 33.94035 | -118.38463 | 96 ft | 14 kts | 83° |
| 2026-04-20 21:00 | 33.94044 | -118.38376 | 96 ft | 7 kts | 83° |
| 2026-04-20 21:00 | 33.94052 | -118.38304 | 96 ft | 11 kts | 83° |
| 2026-04-20 21:00 | 33.94059 | -118.38237 | 95 ft | 13 kts | 83° |
| 2026-04-20 21:00 | 33.94072 | -118.38103 | 93 ft | 8 kts | 83° |
| 2026-04-20 21:01 | 33.94077 | -118.38063 | 93 ft | 8 kts | 82° |
| 2026-04-20 21:01 | 33.94077 | -118.38032 | 93 ft | 2 kts | 100° |
| 2026-04-20 21:01 | 33.94066 | -118.38014 | 94 ft | 4 kts | 135° |
| 2026-04-20 21:01 | 33.94025 | -118.37997 | 93 ft | 8 kts | 170° |
| 2026-04-20 21:02 | 33.93985 | -118.38012 | 93 ft | 4 kts | 231° |
| 2026-04-20 21:02 | 33.93982 | -118.38038 | 94 ft | 2 kts | 264° |
| 2026-04-20 21:02 | 33.93980 | -118.38054 | 93 ft | 7 kts | 264° |
| 2026-04-20 21:02 | 33.93946 | -118.38394 | 99 ft | 76 kts | 263° |
| 2026-04-20 21:03 | 33.93856 | -118.39274 | 94 ft | 134 kts | 263° |
| 2026-04-20 21:03 | 33.93727 | -118.40519 | 418 ft | 152 kts | 262° |
| 2026-04-20 21:03 | 33.93583 | -118.41783 | 1076 ft | 154 kts | 261° |
| 2026-04-20 21:03 | 33.93424 | -118.43148 | 1502 ft | 176 kts | 261° |
| 2026-04-20 21:04 | 33.93290 | -118.44709 | 1961 ft | 199 kts | 262° |
| 2026-04-20 21:04 | 33.93120 | -118.46490 | 2299 ft | 229 kts | 262° |
| 2026-04-20 21:04 | 33.92912 | -118.48505 | 2798 ft | 255 kts | 262° |
| 2026-04-20 21:04 | 33.92731 | -118.50675 | 3686 ft | 264 kts | 264° |
| 2026-04-20 21:05 | 33.92575 | -118.52915 | 4646 ft | 271 kts | 263° |
| 2026-04-20 21:05 | 33.92395 | -118.55179 | 5698 ft | 273 kts | 261° |
| 2026-04-20 21:05 | 33.92218 | -118.57465 | 6712 ft | 276 kts | 262° |
| 2026-04-20 21:05 | 33.92029 | -118.59780 | 7657 ft | 280 kts | 261° |
| 2026-04-20 21:06 | 33.91840 | -118.62124 | 8627 ft | 283 kts | 262° |
| 2026-04-20 21:06 | 33.91758 | -118.64508 | 9571 ft | 287 kts | 266° |
| 2026-04-20 21:06 | 33.91755 | -118.66941 | 10388 ft | 297 kts | 266° |
| 2026-04-20 21:06 | 33.91749 | -118.69530 | 10701 ft | 321 kts | 266° |
| 2026-04-20 21:07 | 33.91743 | -118.72253 | 11200 ft | 335 kts | 266° |
| 2026-04-20 21:07 | 33.91734 | -118.75077 | 11986 ft | 339 kts | 266° |
| 2026-04-20 21:07 | 33.91724 | -118.77929 | 12817 ft | 342 kts | 266° |
| 2026-04-20 21:07 | 33.91712 | -118.80808 | 13639 ft | 346 kts | 266° |
| 2026-04-20 21:08 | 33.91700 | -118.83718 | 14383 ft | 349 kts | 266° |
| 2026-04-20 21:08 | 33.91781 | -118.86650 | 15114 ft | 352 kts | 268° |
| 2026-04-20 21:08 | 33.91874 | -118.89606 | 15845 ft | 354 kts | 268° |
| 2026-04-20 21:08 | 33.91959 | -118.92583 | 16580 ft | 357 kts | 268° |
| 2026-04-20 21:09 | 33.92055 | -118.95581 | 17309 ft | 360 kts | 268° |
| 2026-04-20 21:09 | 33.92175 | -118.98606 | 18064 ft | 364 kts | 271° |
| 2026-04-20 21:09 | 33.92676 | -119.01632 | 18721 ft | 374 kts | 282° |
| 2026-04-20 21:09 | 33.93716 | -119.04547 | 19333 ft | 385 kts | 294° |
| 2026-04-20 21:10 | 33.95133 | -119.07319 | 19964 ft | 391 kts | 297° |
| 2026-04-20 21:10 | 33.96589 | -119.10102 | 20580 ft | 394 kts | 296° |
| 2026-04-20 21:10 | 33.98044 | -119.12918 | 21178 ft | 398 kts | 296° |
| 2026-04-20 21:10 | 33.99517 | -119.15759 | 21765 ft | 402 kts | 298° |
| 2026-04-20 21:11 | 34.01256 | -119.18445 | 22343 ft | 412 kts | 308° |
| 2026-04-20 21:11 | 34.03423 | -119.20760 | 22907 ft | 422 kts | 319° |
| 2026-04-20 21:11 | 34.05825 | -119.22822 | 23474 ft | 426 kts | 320° |
| 2026-04-20 21:11 | 34.08259 | -119.24886 | 23978 ft | 429 kts | 320° |
| 2026-04-20 21:12 | 34.10667 | -119.26947 | 24416 ft | 432 kts | 320° |
| 2026-04-20 21:12 | 34.13127 | -119.29060 | 24886 ft | 435 kts | 320° |
| 2026-04-20 21:12 | 34.15598 | -119.31188 | 25357 ft | 437 kts | 320° |
| 2026-04-20 21:12 | 34.18077 | -119.33333 | 25818 ft | 440 kts | 320° |
| 2026-04-20 21:13 | 34.20577 | -119.35486 | 26282 ft | 442 kts | 320° |
| 2026-04-20 21:13 | 34.23090 | -119.37649 | 26724 ft | 445 kts | 320° |
| 2026-04-20 21:13 | 34.25616 | -119.39830 | 27180 ft | 448 kts | 320° |
| 2026-04-20 21:13 | 34.28159 | -119.42025 | 27623 ft | 451 kts | 320° |
| 2026-04-20 21:14 | 34.30721 | -119.44236 | 28072 ft | 453 kts | 320° |
| 2026-04-20 21:14 | 34.33290 | -119.46464 | 28511 ft | 456 kts | 320° |
| 2026-04-20 21:14 | 34.35873 | -119.48706 | 28947 ft | 458 kts | 320° |
| 2026-04-20 21:14 | 34.38472 | -119.50964 | 29368 ft | 461 kts | 320° |
| 2026-04-20 21:15 | 34.41039 | -119.53297 | 29774 ft | 462 kts | 315° |
| 2026-04-20 21:15 | 34.43364 | -119.55975 | 30181 ft | 461 kts | 310° |
| 2026-04-20 21:15 | 34.45616 | -119.58759 | 30528 ft | 464 kts | 310° |
| 2026-04-20 21:15 | 34.47877 | -119.61558 | 30873 ft | 466 kts | 310° |
| 2026-04-20 21:16 | 34.50156 | -119.64360 | 31229 ft | 468 kts | 310° |
| 2026-04-20 21:16 | 34.52443 | -119.67176 | 31641 ft | 468 kts | 311° |
| 2026-04-20 21:16 | 34.54715 | -119.69981 | 32128 ft | 466 kts | 310° |
| 2026-04-20 21:16 | 34.56982 | -119.72782 | 32630 ft | 464 kts | 310° |
| 2026-04-20 21:17 | 34.59243 | -119.75566 | 33111 ft | 463 kts | 310° |
| 2026-04-20 21:17 | 34.61500 | -119.78346 | 33598 ft | 461 kts | 310° |
| 2026-04-20 21:17 | 34.63747 | -119.81121 | 34073 ft | 459 kts | 310° |
| 2026-04-20 21:17 | 34.65955 | -119.83851 | 34515 ft | 458 kts | 309° |
| 2026-04-20 21:18 | 34.68180 | -119.86614 | 34932 ft | 457 kts | 309° |
| 2026-04-20 21:18 | 34.70399 | -119.89377 | 35367 ft | 456 kts | 309° |
| 2026-04-20 21:18 | 34.72622 | -119.92121 | 35801 ft | 455 kts | 309° |
| 2026-04-20 21:18 | 34.74842 | -119.94878 | 36033 ft | 457 kts | 309° |
| 2026-04-20 21:19 | 34.79279 | -120.00398 | 36053 ft | 455 kts | 309° |
| 2026-04-20 21:20 | 34.85918 | -120.08651 | 36056 ft | 455 kts | 309° |
| 2026-04-20 21:20 | 34.90325 | -120.14170 | 36060 ft | 454 kts | 309° |
| 2026-04-20 21:21 | 34.94734 | -120.19692 | 36049 ft | 455 kts | 309° |
| 2026-04-20 21:21 | 34.99159 | -120.25226 | 36054 ft | 456 kts | 309° |
| 2026-04-20 21:22 | 35.03591 | -120.30774 | 36059 ft | 456 kts | 309° |
| 2026-04-20 21:22 | 35.08010 | -120.36334 | 36065 ft | 456 kts | 309° |
| 2026-04-20 21:23 | 35.12634 | -120.41623 | 36082 ft | 459 kts | 313° |
| 2026-04-20 21:23 | 35.17350 | -120.46883 | 36088 ft | 459 kts | 313° |
| 2026-04-20 21:24 | 35.22081 | -120.52193 | 36078 ft | 458 kts | 312° |
| 2026-04-20 21:24 | 35.26752 | -120.57434 | 36084 ft | 459 kts | 312° |
| 2026-04-20 21:25 | 35.31455 | -120.62735 | 36079 ft | 460 kts | 313° |
| 2026-04-20 21:25 | 35.36165 | -120.68043 | 36078 ft | 460 kts | 313° |
| 2026-04-20 21:26 | 35.40877 | -120.73356 | 36084 ft | 460 kts | 312° |
| 2026-04-20 21:26 | 35.45576 | -120.78678 | 36069 ft | 460 kts | 312° |
| 2026-04-20 21:27 | 35.50457 | -120.83802 | 36069 ft | 465 kts | 319° |
| 2026-04-20 21:27 | 35.55633 | -120.88572 | 36067 ft | 465 kts | 318° |
| 2026-04-20 21:28 | 35.60800 | -120.93365 | 36065 ft | 466 kts | 318° |
| 2026-04-20 21:28 | 35.65973 | -120.98166 | 36077 ft | 466 kts | 318° |
| 2026-04-20 21:29 | 35.71103 | -121.02955 | 36067 ft | 466 kts | 318° |
| 2026-04-20 21:29 | 35.76270 | -121.07777 | 36063 ft | 466 kts | 318° |
| 2026-04-20 21:30 | 35.81436 | -121.12608 | 36055 ft | 466 kts | 318° |
| 2026-04-20 21:30 | 35.86602 | -121.17444 | 36054 ft | 466 kts | 318° |
| 2026-04-20 21:30 | 35.89187 | -121.19871 | 35886 ft | 466 kts | 318° |
| 2026-04-20 21:31 | 35.91765 | -121.22287 | 35643 ft | 466 kts | 318° |
| 2026-04-20 21:31 | 35.94344 | -121.24708 | 35403 ft | 466 kts | 317° |
| 2026-04-20 21:31 | 35.96922 | -121.27134 | 35149 ft | 466 kts | 318° |
| 2026-04-20 21:31 | 35.99507 | -121.29568 | 34439 ft | 469 kts | 318° |
| 2026-04-20 21:32 | 36.02120 | -121.32022 | 33668 ft | 473 kts | 318° |
| 2026-04-20 21:32 | 36.04741 | -121.34491 | 32951 ft | 474 kts | 318° |
| 2026-04-20 21:32 | 36.07394 | -121.36905 | 32387 ft | 474 kts | 322° |
| 2026-04-20 21:32 | 36.10175 | -121.39088 | 32129 ft | 474 kts | 323° |
| 2026-04-20 21:33 | 36.12973 | -121.41245 | 31883 ft | 473 kts | 323° |
| 2026-04-20 21:33 | 36.15756 | -121.43405 | 31626 ft | 471 kts | 323° |
| 2026-04-20 21:33 | 36.18524 | -121.45568 | 31376 ft | 470 kts | 323° |
| 2026-04-20 21:33 | 36.21283 | -121.47722 | 31132 ft | 468 kts | 323° |
| 2026-04-20 21:34 | 36.24027 | -121.49879 | 30877 ft | 466 kts | 322° |
| 2026-04-20 21:34 | 36.26757 | -121.52032 | 30635 ft | 464 kts | 322° |
| 2026-04-20 21:34 | 36.29486 | -121.54166 | 30402 ft | 463 kts | 322° |
| 2026-04-20 21:34 | 36.32207 | -121.56291 | 30153 ft | 462 kts | 322° |
| 2026-04-20 21:35 | 36.34914 | -121.58420 | 29899 ft | 460 kts | 322° |
| 2026-04-20 21:35 | 36.37611 | -121.60536 | 29617 ft | 458 kts | 322° |
| 2026-04-20 21:35 | 36.40299 | -121.62638 | 28882 ft | 456 kts | 322° |
| 2026-04-20 21:35 | 36.43005 | -121.64765 | 27617 ft | 464 kts | 321° |
| 2026-04-20 21:36 | 36.45731 | -121.66914 | 26653 ft | 464 kts | 321° |
| 2026-04-20 21:36 | 36.48450 | -121.69056 | 25840 ft | 460 kts | 321° |
| 2026-04-20 21:36 | 36.51104 | -121.71146 | 25142 ft | 455 kts | 321° |
| 2026-04-20 21:36 | 36.53734 | -121.73224 | 24775 ft | 441 kts | 321° |
| 2026-04-20 21:37 | 36.56301 | -121.75250 | 24221 ft | 434 kts | 320° |
| 2026-04-20 21:37 | 36.58835 | -121.77250 | 23651 ft | 429 kts | 320° |
| 2026-04-20 21:37 | 36.61340 | -121.79238 | 22973 ft | 426 kts | 320° |
| 2026-04-20 21:37 | 36.63828 | -121.81217 | 22367 ft | 421 kts | 320° |
| 2026-04-20 21:38 | 36.66283 | -121.83170 | 21739 ft | 417 kts | 320° |
| 2026-04-20 21:38 | 36.68715 | -121.85107 | 21098 ft | 413 kts | 320° |
| 2026-04-20 21:38 | 36.71129 | -121.87021 | 20458 ft | 410 kts | 320° |
| 2026-04-20 21:38 | 36.73521 | -121.88922 | 19853 ft | 405 kts | 319° |
| 2026-04-20 21:39 | 36.75728 | -121.91021 | 19233 ft | 395 kts | 312° |
| 2026-04-20 21:39 | 36.77819 | -121.93223 | 18604 ft | 391 kts | 311° |
| 2026-04-20 21:39 | 36.79887 | -121.95417 | 17966 ft | 390 kts | 312° |
| 2026-04-20 21:39 | 36.81948 | -121.97590 | 17466 ft | 386 kts | 313° |
| 2026-04-20 21:40 | 36.83995 | -121.99739 | 16969 ft | 382 kts | 313° |
| 2026-04-20 21:40 | 36.85990 | -122.01844 | 16514 ft | 378 kts | 313° |
| 2026-04-20 21:40 | 36.87989 | -122.03950 | 16051 ft | 375 kts | 313° |
| 2026-04-20 21:40 | 36.89979 | -122.06039 | 15581 ft | 372 kts | 314° |
| 2026-04-20 21:41 | 36.91950 | -122.08116 | 15145 ft | 370 kts | 314° |
| 2026-04-20 21:41 | 36.93920 | -122.10195 | 14649 ft | 371 kts | 314° |
| 2026-04-20 21:41 | 36.95890 | -122.12272 | 14174 ft | 371 kts | 315° |
| 2026-04-20 21:41 | 36.97866 | -122.14352 | 13697 ft | 371 kts | 315° |
| 2026-04-20 21:42 | 36.99834 | -122.16428 | 13198 ft | 368 kts | 315° |
| 2026-04-20 21:42 | 37.01783 | -122.18484 | 12724 ft | 365 kts | 315° |
| 2026-04-20 21:42 | 37.03710 | -122.20526 | 12270 ft | 361 kts | 315° |
| 2026-04-20 21:42 | 37.05618 | -122.22555 | 11802 ft | 359 kts | 315° |
| 2026-04-20 21:43 | 37.07506 | -122.24567 | 11369 ft | 354 kts | 315° |
| 2026-04-20 21:43 | 37.09354 | -122.26528 | 11231 ft | 342 kts | 315° |
| 2026-04-20 21:43 | 37.11149 | -122.28428 | 11087 ft | 334 kts | 315° |
| 2026-04-20 21:43 | 37.12893 | -122.30292 | 10941 ft | 326 kts | 314° |
| 2026-04-20 21:44 | 37.14587 | -122.32157 | 10721 ft | 322 kts | 314° |
| 2026-04-20 21:44 | 37.16267 | -122.34005 | 10486 ft | 321 kts | 314° |
| 2026-04-20 21:44 | 37.17941 | -122.35837 | 10250 ft | 319 kts | 314° |
| 2026-04-20 21:44 | 37.19600 | -122.37657 | 10026 ft | 315 kts | 314° |
| 2026-04-20 21:45 | 37.21242 | -122.39465 | 9809 ft | 314 kts | 314° |
| 2026-04-20 21:45 | 37.22887 | -122.41277 | 9604 ft | 314 kts | 313° |
| 2026-04-20 21:45 | 37.24506 | -122.43066 | 9372 ft | 314 kts | 313° |
| 2026-04-20 21:45 | 37.26158 | -122.44886 | 9160 ft | 311 kts | 313° |
| 2026-04-20 21:46 | 37.27751 | -122.46648 | 8954 ft | 308 kts | 313° |
| 2026-04-20 21:46 | 37.29358 | -122.48422 | 8754 ft | 307 kts | 313° |
| 2026-04-20 21:46 | 37.30960 | -122.50185 | 8541 ft | 305 kts | 313° |
| 2026-04-20 21:46 | 37.32551 | -122.51939 | 8344 ft | 303 kts | 313° |
| 2026-04-20 21:47 | 37.34129 | -122.53683 | 8140 ft | 301 kts | 313° |
| 2026-04-20 21:47 | 37.35703 | -122.55418 | 7936 ft | 300 kts | 313° |
| 2026-04-20 21:47 | 37.37265 | -122.57147 | 7734 ft | 298 kts | 313° |
| 2026-04-20 21:47 | 37.38819 | -122.58868 | 7531 ft | 297 kts | 313° |
| 2026-04-20 21:48 | 37.40371 | -122.60583 | 7333 ft | 296 kts | 313° |
| 2026-04-20 21:48 | 37.41912 | -122.62289 | 7142 ft | 294 kts | 312° |
| 2026-04-20 21:48 | 37.43431 | -122.63973 | 6933 ft | 288 kts | 312° |
| 2026-04-20 21:48 | 37.44921 | -122.65626 | 6737 ft | 282 kts | 312° |
| 2026-04-20 21:49 | 37.46379 | -122.67242 | 6553 ft | 276 kts | 312° |
| 2026-04-20 21:49 | 37.47803 | -122.68824 | 6366 ft | 271 kts | 313° |
| 2026-04-20 21:49 | 37.49201 | -122.70376 | 6174 ft | 265 kts | 313° |
| 2026-04-20 21:49 | 37.50564 | -122.71889 | 6047 ft | 256 kts | 312° |
| 2026-04-20 21:50 | 37.51941 | -122.73268 | 6022 ft | 251 kts | 317° |
| 2026-04-20 21:50 | 37.53336 | -122.74571 | 6021 ft | 249 kts | 317° |
| 2026-04-20 21:50 | 37.54724 | -122.75874 | 6018 ft | 248 kts | 316° |
| 2026-04-20 21:50 | 37.56103 | -122.77184 | 6015 ft | 248 kts | 316° |
| 2026-04-20 21:51 | 37.57465 | -122.78488 | 6015 ft | 249 kts | 316° |
| 2026-04-20 21:51 | 37.58842 | -122.79801 | 6013 ft | 248 kts | 316° |
| 2026-04-20 21:51 | 37.60217 | -122.81118 | 6013 ft | 248 kts | 316° |
| 2026-04-20 21:51 | 37.61591 | -122.82438 | 6005 ft | 248 kts | 317° |
| 2026-04-20 21:52 | 37.62972 | -122.83756 | 5996 ft | 250 kts | 316° |
| 2026-04-20 21:52 | 37.64360 | -122.85086 | 6000 ft | 250 kts | 316° |
| 2026-04-20 21:52 | 37.65742 | -122.86418 | 6000 ft | 251 kts | 315° |
| 2026-04-20 21:52 | 37.67129 | -122.87738 | 6000 ft | 249 kts | 320° |
| 2026-04-20 21:53 | 37.68751 | -122.88528 | 5747 ft | 256 kts | 351° |
| 2026-04-20 21:53 | 37.70501 | -122.88212 | 5448 ft | 256 kts | 25° |
| 2026-04-20 21:53 | 37.72047 | -122.87109 | 5127 ft | 255 kts | 33° |
| 2026-04-20 21:53 | 37.73047 | -122.86324 | 4918 ft | 256 kts | 33° |
| 2026-04-20 21:54 | 37.74560 | -122.85138 | 4628 ft | 255 kts | 33° |
| 2026-04-20 21:54 | 37.76069 | -122.83964 | 4370 ft | 254 kts | 33° |
| 2026-04-20 21:54 | 37.77520 | -122.82705 | 4088 ft | 251 kts | 47° |
| 2026-04-20 21:54 | 37.78376 | -122.80878 | 4005 ft | 237 kts | 84° |
| 2026-04-20 21:55 | 37.78424 | -122.78868 | 4007 ft | 228 kts | 102° |
| 2026-04-20 21:55 | 37.78276 | -122.76864 | 4000 ft | 230 kts | 103° |
| 2026-04-20 21:55 | 37.78124 | -122.74843 | 4004 ft | 232 kts | 102° |
| 2026-04-20 21:55 | 37.77956 | -122.72814 | 4009 ft | 231 kts | 103° |
| 2026-04-20 21:56 | 37.77568 | -122.70957 | 3991 ft | 206 kts | 126° |
| 2026-04-20 21:56 | 37.76895 | -122.69435 | 3992 ft | 193 kts | 128° |
| 2026-04-20 21:56 | 37.76231 | -122.67977 | 3976 ft | 189 kts | 128° |
| 2026-04-20 21:56 | 37.75598 | -122.66580 | 3859 ft | 179 kts | 129° |
| 2026-04-20 21:57 | 37.74995 | -122.65244 | 3710 ft | 171 kts | 128° |
| 2026-04-20 21:57 | 37.74391 | -122.63926 | 3394 ft | 177 kts | 128° |
| 2026-04-20 21:57 | 37.73773 | -122.62578 | 3208 ft | 180 kts | 130° |
| 2026-04-20 21:57 | 37.73156 | -122.61223 | 3082 ft | 174 kts | 131° |
| 2026-04-20 21:58 | 37.72559 | -122.59921 | 2984 ft | 170 kts | 133° |
| 2026-04-20 21:58 | 37.71956 | -122.58648 | 2980 ft | 172 kts | 133° |
| 2026-04-20 21:58 | 37.71341 | -122.57343 | 2984 ft | 173 kts | 132° |
| 2026-04-20 21:58 | 37.70725 | -122.56037 | 2929 ft | 173 kts | 133° |
| 2026-04-20 21:59 | 37.70113 | -122.54738 | 2700 ft | 171 kts | 133° |
| 2026-04-20 21:59 | 37.69512 | -122.53459 | 2479 ft | 168 kts | 132° |
| 2026-04-20 21:59 | 37.68919 | -122.52200 | 2301 ft | 164 kts | 134° |
| 2026-04-20 21:59 | 37.68326 | -122.50956 | 2030 ft | 164 kts | 132° |
| 2026-04-20 22:00 | 37.67757 | -122.49748 | 1868 ft | 155 kts | 132° |
| 2026-04-20 22:00 | 37.67233 | -122.48625 | 1718 ft | 143 kts | 133° |
| 2026-04-20 22:00 | 37.66753 | -122.47595 | 1500 ft | 131 kts | 133° |
| 2026-04-20 22:00 | 37.66294 | -122.46625 | 1339 ft | 127 kts | 133° |
| 2026-04-20 22:01 | 37.65847 | -122.45680 | 1162 ft | 124 kts | 132° |
| 2026-04-20 22:01 | 37.65384 | -122.44723 | 1015 ft | 131 kts | 137° |
| 2026-04-20 22:01 | 37.64912 | -122.43736 | 840 ft | 131 kts | 126° |
| 2026-04-20 22:01 | 37.64444 | -122.42745 | 671 ft | 131 kts | 128° |
| 2026-04-20 22:02 | 37.63966 | -122.41758 | 486 ft | 133 kts | 126° |
| 2026-04-20 22:02 | 37.63456 | -122.40724 | 326 ft | 142 kts | 123° |
| 2026-04-20 22:02 | 37.62995 | -122.39623 | 125 ft | 142 kts | 123° |
| 2026-04-20 22:02 | 37.62544 | -122.38562 | 23 ft | 126 kts | 117° |
| 2026-04-20 22:03 | 37.62211 | -122.37763 | 24 ft | 78 kts | 117° |
| 2026-04-20 22:03 | 37.62021 | -122.37309 | 22 ft | 44 kts | 117° |
| 2026-04-20 22:03 | 37.61932 | -122.37098 | 22 ft | 15 kts | 127° |
| 2026-04-20 22:03 | 37.61864 | -122.37095 | 22 ft | 12 kts | 206° |
| 2026-04-20 22:04 | 37.61788 | -122.37146 | 22 ft | 14 kts | 208° |
| 2026-04-20 22:04 | 37.61697 | -122.37206 | 22 ft | 16 kts | 207° |
| 2026-04-20 22:04 | 37.61631 | -122.37259 | 24 ft | 7 kts | 233° |
| 2026-04-20 22:04 | 37.61635 | -122.37314 | 22 ft | 8 kts | 298° |
| 2026-04-20 22:05 | 37.61668 | -122.37392 | 24 ft | 12 kts | 298° |
| 2026-04-20 22:05 | 37.61713 | -122.37496 | 22 ft | 15 kts | 298° |
| 2026-04-20 22:05 | 37.61749 | -122.37609 | 22 ft | 14 kts | 291° |
| 2026-04-20 22:05 | 37.61788 | -122.37734 | 22 ft | 17 kts | 291° |
| 2026-04-20 22:06 | 37.61821 | -122.37841 | 22 ft | 12 kts | 291° |
| 2026-04-20 22:06 | 37.61859 | -122.37949 | 22 ft | 14 kts | 298° |
| 2026-04-20 22:06 | 37.61902 | -122.38050 | 24 ft | 13 kts | 298° |
| 2026-04-20 22:06 | 37.61938 | -122.38136 | 22 ft | 11 kts | 298° |
| 2026-04-20 22:07 | 37.61966 | -122.38204 | 22 ft | 9 kts | 298° |
| 2026-04-20 22:07 | 37.61994 | -122.38269 | 22 ft | 10 kts | 297° |
| 2026-04-20 22:07 | 37.62027 | -122.38349 | 24 ft | 12 kts | 297° |
| 2026-04-20 22:07 | 37.62062 | -122.38433 | 22 ft | 12 kts | 298° |
| 2026-04-20 22:08 | 37.62095 | -122.38512 | 22 ft | 3 kts | 298° |
| 2026-04-20 22:08 | 37.62109 | -122.38544 | 23 ft | 6 kts | 297° |
| 2026-04-20 22:08 | 37.62136 | -122.38609 | 22 ft | 10 kts | 298° |
| 2026-04-20 22:08 | 37.62153 | -122.38650 | 23 ft | 2 kts | 298° |
| 2026-04-20 22:09 | 37.62163 | -122.38674 | 24 ft | 5 kts | 298° |
| 2026-04-20 22:09 | 37.62187 | -122.38730 | 22 ft | 9 kts | 297° |
| 2026-04-20 22:09 | 37.62220 | -122.38811 | 22 ft | 11 kts | 298° |
| 2026-04-20 22:09 | 37.62252 | -122.38886 | 23 ft | 9 kts | 298° |
| 2026-04-20 22:10 | 37.62261 | -122.38969 | 22 ft | 11 kts | 252° |
| 2026-04-20 22:10 | 37.62236 | -122.39070 | 22 ft | 12 kts | 253° |
| 2026-04-20 22:10 | 37.62197 | -122.39130 | 22 ft | 10 kts | 208° |
| 2026-04-20 22:10 | 37.62138 | -122.39167 | 22 ft | 11 kts | 208° |
| 2026-04-20 22:11 | 37.62079 | -122.39207 | 24 ft | 8 kts | 208° |
| 2026-04-20 22:11 | 37.62035 | -122.39201 | 24 ft | 7 kts | 135° |
| 2026-04-20 22:11 | 37.62006 | -122.39138 | 24 ft | 9 kts | 118° |
| 2026-04-20 22:11 | 37.61975 | -122.39063 | 22 ft | 8 kts | 117° |
| 2026-04-20 22:12 | 37.61953 | -122.39008 | 24 ft | 6 kts | 116° |
| 2026-04-20 22:12 | 37.61970 | -122.38977 | 24 ft | 6 kts | 28° |
| 2026-04-20 22:12 | 37.62012 | -122.38949 | 22 ft | 5 kts | 27° |
| 2026-04-20 22:12 | 37.62025 | -122.38940 | 22 ft | 0 kts | 27° |